createdAt,value
2018-12-16T00:02:14.861Z,100797.31
2018-12-16T00:04:46.782Z,100798.06
2018-12-16T00:07:11.728Z,100794.41
2018-12-16T00:09:39.168Z,100791.73
2018-12-16T00:12:06.634Z,100789.94
2018-12-16T00:14:34.073Z,100778.50
2018-12-16T00:17:01.521Z,100773.52
2018-12-16T00:19:28.961Z,100763.90
2018-12-16T00:21:56.397Z,100755.89
2018-12-16T00:24:23.837Z,100762.48
2018-12-16T00:26:51.280Z,100757.69
2018-12-16T00:29:18.808Z,100747.34
2018-12-16T00:31:46.244Z,100743.38
2018-12-16T00:34:13.688Z,100743.02
2018-12-16T00:36:41.124Z,100751.71
2018-12-16T00:39:08.561Z,100752.17
2018-12-16T00:41:36.001Z,100750.59
2018-12-16T00:44:03.439Z,100757.69
2018-12-16T00:46:30.881Z,100758.96
2018-12-16T00:48:58.312Z,100763.23
2018-12-16T00:51:25.761Z,100766.58
2018-12-16T00:53:53.197Z,100754.61
2018-12-16T00:56:20.641Z,100743.95
2018-12-16T00:58:48.082Z,100744.75
2018-12-16T01:01:15.528Z,100744.47
2018-12-16T01:03:42.969Z,100743.55
2018-12-16T01:06:10.517Z,100735.86
2018-12-16T01:08:37.950Z,100731.82
2018-12-16T01:11:05.392Z,100733.84
2018-12-16T01:13:32.836Z,100727.17
2018-12-16T01:16:00.276Z,100718.87
2018-12-16T01:18:27.720Z,100715.23
2018-12-16T01:20:55.153Z,100724.12
2018-12-16T01:23:22.591Z,100721.06
2018-12-16T01:25:50.029Z,100718.05
2018-12-16T01:28:17.461Z,100707.08
2018-12-16T01:30:44.898Z,100711.95
2018-12-16T01:33:12.346Z,100702.05
2018-12-16T01:35:39.787Z,100689.71
2018-12-16T01:38:07.217Z,100689.91
2018-12-16T01:40:34.673Z,100683.76
2018-12-16T01:43:02.705Z,100680.68
2018-12-16T01:45:30.139Z,100681.17
2018-12-16T01:47:57.586Z,100675.19
2018-12-16T01:50:25.043Z,100668.38
2018-12-16T01:52:52.476Z,100660.42
2018-12-16T01:55:19.917Z,100652.48
2018-12-16T01:57:47.374Z,100651.62
2018-12-16T02:00:14.808Z,100653.00
2018-12-16T02:02:42.252Z,100649.12
2018-12-16T02:05:09.688Z,100652.80
2018-12-16T02:07:37.135Z,100646.28
2018-12-16T02:10:04.568Z,100645.57
2018-12-16T02:12:32.004Z,100651.23
2018-12-16T02:14:59.445Z,100654.01
2018-12-16T02:17:26.881Z,100645.17
2018-12-16T02:19:54.317Z,100645.42
2018-12-16T02:22:21.765Z,100637.64
2018-12-16T02:24:49.205Z,100635.45
2018-12-16T02:27:16.637Z,100644.34
2018-12-16T02:29:44.073Z,100639.20
2018-12-16T02:32:11.516Z,100640.28
2018-12-16T02:34:39.005Z,100632.75
2018-12-16T02:37:06.441Z,100629.85
2018-12-16T02:39:33.877Z,100633.80
2018-12-16T02:42:01.443Z,100638.88
2018-12-16T02:44:28.883Z,100629.47
2018-12-16T02:46:56.319Z,100632.04
2018-12-16T02:49:23.810Z,100634.64
2018-12-16T02:51:51.266Z,100633.57
2018-12-16T02:54:18.729Z,100620.55
2018-12-16T02:56:46.186Z,100620.02
2018-12-16T02:59:13.648Z,100624.09
2018-12-16T03:01:45.282Z,100617.65
2018-12-16T03:04:12.708Z,100616.94
2018-12-16T03:06:40.155Z,100616.20
2018-12-16T03:09:07.681Z,100615.52
2018-12-16T03:11:35.130Z,100612.37
2018-12-16T03:14:02.569Z,100609.67
2018-12-16T03:16:30.028Z,100615.93
2018-12-16T03:18:57.477Z,100619.45
2018-12-16T03:21:24.909Z,100609.03
2018-12-16T03:23:52.356Z,100606.23
2018-12-16T03:26:19.793Z,100606.44
2018-12-16T03:28:47.304Z,100609.48
2018-12-16T03:31:14.759Z,100606.72
2018-12-16T03:33:42.282Z,100596.70
2018-12-16T03:36:09.713Z,100590.73
2018-12-16T03:38:37.163Z,100594.26
2018-12-16T03:41:04.598Z,100581.61
2018-12-16T03:43:32.032Z,100576.02
2018-12-16T03:45:59.538Z,100580.27
2018-12-16T03:48:26.977Z,100570.64
2018-12-16T03:50:54.477Z,100563.02
2018-12-16T03:53:21.927Z,100554.08
2018-12-16T03:55:49.357Z,100556.19
2018-12-16T03:58:16.806Z,100550.59
2018-12-16T04:00:44.320Z,100542.20
2018-12-16T04:03:11.778Z,100545.77
2018-12-16T04:05:39.212Z,100537.15
2018-12-16T04:08:06.671Z,100538.10
2018-12-16T04:10:34.193Z,100533.15
2018-12-16T04:13:01.649Z,100540.23
2018-12-16T04:15:29.099Z,100533.50
2018-12-16T04:17:56.536Z,100524.22
2018-12-16T04:20:23.981Z,100529.88
2018-12-16T04:22:51.423Z,100517.80
2018-12-16T04:25:21.486Z,100518.84
2018-12-16T04:27:48.922Z,100513.22
2018-12-16T04:30:16.361Z,100510.55
2018-12-16T04:32:43.796Z,100506.68
2018-12-16T04:35:11.247Z,100504.65
2018-12-16T04:37:38.718Z,100503.56
2018-12-16T04:40:06.197Z,100502.51
2018-12-16T04:42:33.637Z,100498.26
2018-12-16T04:45:01.076Z,100493.05
2018-12-16T04:47:28.526Z,100486.53
2018-12-16T04:49:56.086Z,100490.88
2018-12-16T04:52:23.528Z,100497.24
2018-12-16T04:54:50.966Z,100493.90
2018-12-16T04:57:18.410Z,100492.28
2018-12-16T04:59:45.848Z,100489.36
2018-12-16T05:02:13.291Z,100493.61
2018-12-16T05:04:40.744Z,100488.31
2018-12-16T05:07:08.198Z,100478.17
2018-12-16T05:09:35.630Z,100479.41
2018-12-16T05:12:03.070Z,100469.02
2018-12-16T05:14:30.677Z,100471.31
2018-12-16T05:16:58.117Z,100457.33
2018-12-16T05:19:25.576Z,100455.13
2018-12-16T05:21:53.081Z,100459.11
2018-12-16T05:24:20.519Z,100456.70
2018-12-16T05:26:47.949Z,100448.60
2018-12-16T05:29:15.524Z,100454.64
2018-12-16T05:31:42.960Z,100441.27
2018-12-16T05:34:10.422Z,100442.80
2018-12-16T05:36:37.867Z,100434.31
2018-12-16T05:39:05.538Z,100438.77
2018-12-16T05:41:32.984Z,100437.14
2018-12-16T05:44:00.439Z,100437.14
2018-12-16T05:46:27.880Z,100442.55
2018-12-16T05:48:55.337Z,100440.67
2018-12-16T05:51:22.788Z,100439.66
2018-12-16T05:53:50.234Z,100445.88
2018-12-16T05:56:17.688Z,100433.39
2018-12-16T05:58:45.212Z,100441.39
2018-12-16T06:01:12.665Z,100436.98
2018-12-16T06:03:40.121Z,100426.63
2018-12-16T06:06:08.233Z,100426.66
2018-12-16T06:08:35.686Z,100423.34
2018-12-16T06:11:03.118Z,100413.91
2018-12-16T06:13:30.565Z,100408.27
2018-12-16T06:15:58.009Z,100403.05
2018-12-16T06:18:25.456Z,100400.89
2018-12-16T06:20:52.988Z,100391.66
2018-12-16T06:23:20.442Z,100389.08
2018-12-16T06:25:47.888Z,100385.43
2018-12-16T06:28:15.330Z,100387.59
2018-12-16T06:30:43.021Z,100383.82
2018-12-16T06:33:10.461Z,100390.68
2018-12-16T06:35:37.905Z,100388.91
2018-12-16T06:38:05.351Z,100404.36
2018-12-16T06:40:32.800Z,100406.43
2018-12-16T06:43:00.255Z,100404.73
2018-12-16T06:45:27.696Z,100402.15
2018-12-16T06:47:55.165Z,100404.27
2018-12-16T06:50:22.616Z,100401.28
2018-12-16T06:52:50.076Z,100402.84
2018-12-16T06:55:17.520Z,100398.02
2018-12-16T06:57:44.953Z,100391.90
2018-12-16T07:00:12.829Z,100398.45
2018-12-16T07:02:40.277Z,100399.90
2018-12-16T07:05:07.724Z,100408.80
2018-12-16T07:07:35.160Z,100413.98
2018-12-16T07:10:02.604Z,100410.10
2018-12-16T07:12:30.048Z,100410.86
2018-12-16T07:14:57.523Z,100409.05
2018-12-16T07:17:24.977Z,100413.08
2018-12-16T07:19:52.504Z,100411.38
2018-12-16T07:22:19.937Z,100415.75
2018-12-16T07:24:47.395Z,100407.27
2018-12-16T07:27:14.833Z,100410.06
2018-12-16T07:29:42.287Z,100401.81
2018-12-16T07:32:09.808Z,100412.48
2018-12-16T07:34:37.258Z,100404.47
2018-12-16T07:37:04.719Z,100403.34
2018-12-16T07:39:32.162Z,100398.16
2018-12-16T07:41:59.601Z,100391.59
2018-12-16T07:44:27.067Z,100386.83
2018-12-16T07:46:54.753Z,100388.87
2018-12-16T07:49:22.213Z,100384.30
2018-12-16T07:51:49.725Z,100380.95
2018-12-16T07:54:17.340Z,100376.04
2018-12-16T07:56:44.782Z,100380.66
2018-12-16T07:59:12.228Z,100378.05
2018-12-16T08:01:39.705Z,100367.03
2018-12-16T08:04:07.295Z,100375.14
2018-12-16T08:06:34.817Z,100370.06
2018-12-16T08:09:02.284Z,100374.20
2018-12-16T08:11:29.704Z,100378.73
2018-12-16T08:13:57.160Z,100378.77
2018-12-16T08:16:24.592Z,100380.77
2018-12-16T08:18:52.040Z,100376.41
2018-12-16T08:21:19.472Z,100380.34
2018-12-16T08:23:46.921Z,100364.94
2018-12-16T08:26:14.372Z,100367.48
2018-12-16T08:28:41.837Z,100357.81
2018-12-16T08:31:09.272Z,100362.17
2018-12-16T08:33:36.724Z,100353.28
2018-12-16T08:36:04.175Z,100354.89
2018-12-16T08:38:31.635Z,100349.30
2018-12-16T08:40:59.085Z,100351.55
2018-12-16T08:43:26.531Z,100348.58
2018-12-16T08:45:53.979Z,100356.76
2018-12-16T08:48:21.420Z,100363.28
2018-12-16T08:50:48.916Z,100354.51
2018-12-16T08:53:16.361Z,100359.64
2018-12-16T08:55:43.808Z,100363.57
2018-12-16T08:58:11.244Z,100369.59
2018-12-16T09:00:38.684Z,100373.53
2018-12-16T09:03:08.072Z,100364.67
2018-12-16T09:05:35.571Z,100354.08
2018-12-16T09:08:03.048Z,100348.48
2018-12-16T09:10:34.082Z,100346.38
2018-12-16T09:12:59.885Z,100340.02
2018-12-16T09:15:27.328Z,100331.50
2018-12-16T09:17:54.761Z,100328.68
2018-12-16T09:20:22.200Z,100322.53
2018-12-16T09:22:49.636Z,100318.36
2018-12-16T09:25:17.077Z,100320.28
2018-12-16T09:27:44.516Z,100310.06
2018-12-16T09:30:11.958Z,100299.28
2018-12-16T09:32:39.393Z,100303.05
2018-12-16T09:35:06.836Z,100300.34
2018-12-16T09:37:34.275Z,100298.67
2018-12-16T09:40:01.716Z,100312.15
2018-12-16T09:42:29.163Z,100305.77
2018-12-16T09:44:56.878Z,100304.16
2018-12-16T09:47:24.548Z,100302.39
2018-12-16T09:49:52.005Z,100301.59
2018-12-16T09:52:19.542Z,100306.27
2018-12-16T09:54:46.988Z,100307.27
2018-12-16T09:57:14.525Z,100309.97
2018-12-16T09:59:42.004Z,100300.45
2018-12-16T10:02:09.445Z,100301.92
2018-12-16T10:04:36.892Z,100295.53
2018-12-16T10:07:04.332Z,100287.08
2018-12-16T10:09:31.832Z,100274.52
2018-12-16T10:11:59.269Z,100276.14
2018-12-16T10:14:26.704Z,100281.22
2018-12-16T10:16:54.148Z,100283.70
2018-12-16T10:19:21.612Z,100289.02
2018-12-16T10:21:49.056Z,100272.52
2018-12-16T10:24:16.555Z,100266.10
2018-12-16T10:26:44.041Z,100258.66
2018-12-16T10:29:11.480Z,100258.63
2018-12-16T10:31:38.921Z,100259.40
2018-12-16T10:34:06.368Z,100262.47
2018-12-16T10:36:33.840Z,100259.81
2018-12-16T10:39:01.946Z,100257.44
2018-12-16T10:41:29.582Z,100256.50
2018-12-16T10:43:57.033Z,100255.75
2018-12-16T10:46:24.486Z,100250.13
2018-12-16T10:48:51.925Z,100238.33
2018-12-16T10:51:19.375Z,100252.13
2018-12-16T10:53:46.822Z,100243.34
2018-12-16T10:56:14.261Z,100232.23
2018-12-16T10:58:41.700Z,100216.39
2018-12-16T11:01:14.725Z,100220.76
2018-12-16T11:03:42.171Z,100218.72
2018-12-16T11:06:10.709Z,100219.17
2018-12-16T11:08:38.789Z,100207.73
2018-12-16T11:11:06.241Z,100198.70
2018-12-16T11:13:33.729Z,100196.66
2018-12-16T11:16:01.173Z,100201.09
2018-12-16T11:18:28.602Z,100204.14
2018-12-16T11:20:56.044Z,100192.59
2018-12-16T11:23:23.484Z,100183.04
2018-12-16T11:25:50.928Z,100179.80
2018-12-16T11:28:18.375Z,100172.78
2018-12-16T11:30:45.811Z,100170.13
2018-12-16T11:33:13.260Z,100158.48
2018-12-16T11:35:40.692Z,100169.35
2018-12-16T11:38:08.132Z,100154.50
2018-12-16T11:40:35.576Z,100162.52
2018-12-16T11:43:03.017Z,100152.59
2018-12-16T11:45:30.457Z,100140.70
2018-12-16T11:47:58.132Z,100141.78
2018-12-16T11:50:25.568Z,100132.63
2018-12-16T11:52:53.081Z,100138.30
2018-12-16T11:55:20.527Z,100131.16
2018-12-16T11:57:48.030Z,100128.94
2018-12-16T12:00:15.480Z,100129.44
2018-12-16T12:02:42.913Z,100122.96
2018-12-16T12:05:10.348Z,100124.17
2018-12-16T12:07:37.785Z,100122.64
2018-12-16T12:10:05.216Z,100126.52
2018-12-16T12:12:32.656Z,100124.81
2018-12-16T12:15:00.109Z,100129.50
2018-12-16T12:17:27.621Z,100131.34
2018-12-16T12:19:55.056Z,100131.91
2018-12-16T12:22:22.531Z,100123.03
2018-12-16T12:24:49.968Z,100130.77
2018-12-16T12:27:17.418Z,100141.14
2018-12-16T12:29:44.865Z,100139.50
2018-12-16T12:32:12.372Z,100145.25
2018-12-16T12:34:39.811Z,100142.23
2018-12-16T12:37:07.281Z,100149.10
2018-12-16T12:39:34.717Z,100136.58
2018-12-16T12:42:02.156Z,100128.09
2018-12-16T12:44:29.606Z,100136.18
2018-12-16T12:46:57.041Z,100132.42
2018-12-16T12:49:24.499Z,100125.24
2018-12-16T12:51:51.937Z,100122.45
2018-12-16T12:54:19.373Z,100119.05
2018-12-16T12:56:46.830Z,100114.94
2018-12-16T12:59:14.272Z,100116.59
2018-12-16T13:01:41.752Z,100110.48
2018-12-16T13:04:09.188Z,100113.01
2018-12-16T13:06:36.632Z,100122.55
2018-12-16T13:09:04.186Z,100129.98
2018-12-16T13:11:31.626Z,100128.73
2018-12-16T13:13:59.082Z,100130.63
2018-12-16T13:16:26.525Z,100128.33
2018-12-16T13:18:53.969Z,100133.50
2018-12-16T13:21:21.411Z,100133.67
2018-12-16T13:23:48.853Z,100132.70
2018-12-16T13:26:16.358Z,100129.46
2018-12-16T13:28:43.798Z,100126.62
2018-12-16T13:31:11.240Z,100137.11
2018-12-16T13:33:38.700Z,100134.75
2018-12-16T13:36:06.148Z,100133.58
2018-12-16T13:38:33.594Z,100126.20
2018-12-16T13:41:01.040Z,100125.42
2018-12-16T13:43:28.485Z,100122.25
2018-12-16T13:45:55.925Z,100118.13
2018-12-16T13:48:23.444Z,100123.48
2018-12-16T13:50:50.894Z,100128.27
2018-12-16T13:53:18.337Z,100130.85
2018-12-16T13:55:46.138Z,100139.36
2018-12-16T13:58:13.688Z,100139.80
2018-12-16T14:00:41.124Z,100140.72
2018-12-16T14:03:09.629Z,100142.75
2018-12-16T14:05:37.072Z,100142.73
2018-12-16T14:08:04.524Z,100139.39
2018-12-16T14:10:31.969Z,100134.16
2018-12-16T14:12:59.415Z,100130.08
2018-12-16T14:15:26.857Z,100130.08
2018-12-16T14:17:54.317Z,100131.86
2018-12-16T14:20:21.760Z,100123.53
2018-12-16T14:22:49.300Z,100128.46
2018-12-16T14:25:16.745Z,100129.41
2018-12-16T14:27:44.195Z,100130.14
2018-12-16T14:30:11.644Z,100124.50
2018-12-16T14:32:39.179Z,100130.34
2018-12-16T14:35:06.768Z,100130.73
2018-12-16T14:37:34.216Z,100125.98
2018-12-16T14:40:01.664Z,100126.74
2018-12-16T14:42:29.111Z,100127.75
2018-12-16T14:44:56.556Z,100127.66
2018-12-16T14:47:24.018Z,100129.23
2018-12-16T14:49:51.460Z,100123.38
2018-12-16T14:52:18.913Z,100117.34
2018-12-16T14:54:46.359Z,100118.89
2018-12-16T14:57:13.800Z,100118.41
2018-12-16T14:59:41.236Z,100108.05
2018-12-16T15:02:08.690Z,100108.88
2018-12-16T15:04:36.132Z,100108.61
2018-12-16T15:07:03.584Z,100100.75
2018-12-16T15:09:31.292Z,100108.78
2018-12-16T15:11:58.752Z,100099.92
2018-12-16T15:14:26.191Z,100100.58
2018-12-16T15:16:53.665Z,100098.30
2018-12-16T15:19:21.104Z,100101.08
2018-12-16T15:21:48.561Z,100112.77
2018-12-16T15:24:16.009Z,100127.51
2018-12-16T15:26:43.457Z,100125.36
2018-12-16T15:29:10.897Z,100125.18
2018-12-16T15:31:38.340Z,100130.70
2018-12-16T15:34:05.794Z,100116.73
2018-12-16T15:36:33.236Z,100108.34
2018-12-16T15:39:00.746Z,100107.58
2018-12-16T15:41:28.213Z,100108.55
2018-12-16T15:43:55.744Z,100109.73
2018-12-16T15:46:23.189Z,100106.05
2018-12-16T15:48:50.721Z,100111.98
2018-12-16T15:51:18.164Z,100112.66
2018-12-16T15:53:45.963Z,100105.95
2018-12-16T15:56:13.406Z,100107.98
2018-12-16T15:58:40.896Z,100111.45
2018-12-16T16:01:08.446Z,100116.94
2018-12-16T16:03:35.884Z,100108.84
2018-12-16T16:06:03.404Z,100120.48
2018-12-16T16:08:30.993Z,100125.20
2018-12-16T16:10:58.437Z,100126.48
2018-12-16T16:13:25.965Z,100133.59
2018-12-16T16:15:53.405Z,100130.28
2018-12-16T16:18:20.949Z,100134.16
2018-12-16T16:20:48.392Z,100136.11
2018-12-16T16:23:15.842Z,100133.52
2018-12-16T16:25:43.288Z,100132.48
2018-12-16T16:28:10.765Z,100136.11
2018-12-16T16:30:38.272Z,100142.28
2018-12-16T16:33:05.768Z,100137.70
2018-12-16T16:35:33.213Z,100143.76
2018-12-16T16:38:01.114Z,100146.71
2018-12-16T16:40:29.139Z,100141.58
2018-12-16T16:42:56.607Z,100149.26
2018-12-16T16:45:24.053Z,100154.57
2018-12-16T16:47:51.504Z,100152.92
2018-12-16T16:50:18.951Z,100148.81
2018-12-16T16:52:46.400Z,100155.52
2018-12-16T16:55:13.888Z,100143.41
2018-12-16T16:57:41.341Z,100145.50
2018-12-16T17:00:08.787Z,100147.92
2018-12-16T17:02:36.240Z,100159.69
2018-12-16T17:05:03.702Z,100166.30
2018-12-16T17:07:31.152Z,100177.09
2018-12-16T17:09:58.599Z,100180.45
2018-12-16T17:12:26.129Z,100185.77
2018-12-16T17:14:53.568Z,100177.59
2018-12-16T17:17:21.006Z,100185.63
2018-12-16T17:19:48.453Z,100188.31
2018-12-16T17:22:16.149Z,100191.06
2018-12-16T17:24:43.601Z,100197.36
2018-12-16T17:27:11.050Z,100194.90
2018-12-16T17:29:38.498Z,100198.78
2018-12-16T17:32:05.937Z,100196.91
2018-12-16T17:34:33.457Z,100194.75
2018-12-16T17:37:00.968Z,100198.94
2018-12-16T17:39:28.440Z,100203.81
2018-12-16T17:41:55.872Z,100202.75
2018-12-16T17:44:23.328Z,100206.30
2018-12-16T17:46:51.277Z,100203.00
2018-12-16T17:49:18.711Z,100211.33
2018-12-16T17:51:46.549Z,100209.17
2018-12-16T17:54:14.005Z,100210.44
2018-12-16T17:56:41.809Z,100209.67
2018-12-16T17:59:09.253Z,100210.83
2018-12-16T18:01:36.740Z,100213.19
2018-12-16T18:04:06.133Z,100228.77
2018-12-16T18:06:33.630Z,100224.73
2018-12-16T18:09:01.080Z,100220.91
2018-12-16T18:11:28.513Z,100219.21
2018-12-16T18:13:55.966Z,100223.55
2018-12-16T18:16:23.412Z,100215.80
2018-12-16T18:18:50.852Z,100221.79
2018-12-16T18:21:18.289Z,100229.94
2018-12-16T18:23:45.735Z,100224.95
2018-12-16T18:26:13.167Z,100224.00
2018-12-16T18:28:40.617Z,100229.66
2018-12-16T18:31:08.048Z,100232.48
2018-12-16T18:33:35.497Z,100236.08
2018-12-16T18:36:02.933Z,100235.58
2018-12-16T18:38:30.392Z,100241.50
2018-12-16T18:40:57.824Z,100242.34
2018-12-16T18:43:25.424Z,100244.08
2018-12-16T18:45:52.862Z,100246.12
2018-12-16T18:48:20.295Z,100248.52
2018-12-16T18:50:47.740Z,100242.93
2018-12-16T18:53:15.192Z,100249.08
2018-12-16T18:55:42.628Z,100247.58
2018-12-16T18:58:10.069Z,100242.22
2018-12-16T19:00:37.534Z,100234.94
2018-12-16T19:03:04.972Z,100238.91
2018-12-16T19:05:32.412Z,100235.72
2018-12-16T19:07:59.904Z,100242.58
2018-12-16T19:10:27.353Z,100242.70
2018-12-16T19:12:54.793Z,100242.74
2018-12-16T19:15:22.398Z,100238.42
2018-12-16T19:17:49.897Z,100241.19
2018-12-16T19:20:17.331Z,100238.27
2018-12-16T19:22:44.774Z,100235.16
2018-12-16T19:25:12.209Z,100233.18
2018-12-16T19:27:39.665Z,100228.69
2018-12-16T19:30:07.108Z,100221.09
2018-12-16T19:32:34.604Z,100220.37
2018-12-16T19:35:02.071Z,100213.55
2018-12-16T19:37:29.503Z,100210.27
2018-12-16T19:39:56.941Z,100209.33
2018-12-16T19:42:24.842Z,100210.13
2018-12-16T19:44:52.283Z,100208.47
2018-12-16T19:47:19.722Z,100218.08
2018-12-16T19:49:47.180Z,100219.77
2018-12-16T19:52:14.651Z,100218.31
2018-12-16T19:54:42.424Z,100223.72
2018-12-16T19:57:10.103Z,100223.16
2018-12-16T19:59:37.544Z,100223.56
2018-12-16T20:02:05.008Z,100221.74
2018-12-16T20:04:37.896Z,100227.86
2018-12-16T20:07:05.389Z,100225.31
2018-12-16T20:09:32.824Z,100218.14
2018-12-16T20:12:00.276Z,100224.93
2018-12-16T20:14:27.713Z,100224.70
2018-12-16T20:16:55.148Z,100221.33
2018-12-16T20:19:22.583Z,100219.76
2018-12-16T20:21:50.027Z,100230.14
2018-12-16T20:24:17.581Z,100234.77
2018-12-16T20:26:45.035Z,100235.78
2018-12-16T20:29:12.557Z,100234.21
2018-12-16T20:31:39.999Z,100236.72
2018-12-16T20:34:07.548Z,100238.27
2018-12-16T20:36:35.059Z,100240.51
2018-12-16T20:39:02.549Z,100242.64
2018-12-16T20:41:30.001Z,100239.59
2018-12-16T20:43:57.437Z,100239.09
2018-12-16T20:46:24.877Z,100245.56
2018-12-16T20:48:52.323Z,100240.62
2018-12-16T20:51:19.768Z,100238.91
2018-12-16T20:53:47.205Z,100252.45
2018-12-16T20:56:14.649Z,100251.53
2018-12-16T20:58:42.075Z,100253.81
2018-12-16T21:01:09.521Z,100258.41
2018-12-16T21:03:36.965Z,100251.18
2018-12-16T21:06:04.408Z,100244.53
2018-12-16T21:08:32.271Z,100241.67
2018-12-16T21:11:03.904Z,100247.22
2018-12-16T21:13:36.784Z,100251.33
2018-12-16T21:16:09.545Z,100240.72
2018-12-16T21:18:37.509Z,100247.37
2018-12-16T21:21:05.039Z,100246.60
2018-12-16T21:23:32.472Z,100243.41
2018-12-16T21:25:59.921Z,100239.41
2018-12-16T21:28:27.363Z,100248.52
2018-12-16T21:30:54.798Z,100249.61
2018-12-16T21:33:22.229Z,100244.59
2018-12-16T21:35:49.714Z,100244.47
2018-12-16T21:38:17.195Z,100245.53
2018-12-16T21:40:44.638Z,100251.44
2018-12-16T21:43:12.160Z,100253.78
2018-12-16T22:00:15.997Z,100262.70
2018-12-16T22:02:43.442Z,100256.47
2018-12-16T22:05:12.428Z,100257.95
2018-12-16T22:07:39.875Z,100256.06
2018-12-16T22:10:07.312Z,100255.30
2018-12-16T22:12:34.744Z,100251.89
2018-12-16T22:15:02.196Z,100260.41
2018-12-16T22:17:29.706Z,100264.19
2018-12-16T22:19:57.136Z,100261.66
2018-12-16T22:22:24.592Z,100266.44
2018-12-16T22:24:52.028Z,100267.00
2018-12-16T22:27:19.464Z,100272.71
2018-12-16T22:29:46.910Z,100281.28
2018-12-16T22:32:14.453Z,100278.23
2018-12-16T22:34:41.893Z,100277.97
2018-12-16T22:37:09.589Z,100274.69
2018-12-16T22:39:37.032Z,100274.63
2018-12-16T22:42:04.468Z,100273.17
2018-12-16T22:44:31.916Z,100278.56
2018-12-16T22:46:59.400Z,100274.06
2018-12-16T22:49:26.839Z,100267.80
2018-12-16T22:51:54.273Z,100271.77
2018-12-16T22:54:21.719Z,100274.16
2018-12-16T22:56:49.155Z,100271.28
2018-12-16T22:59:16.585Z,100270.91
2018-12-16T23:01:44.025Z,100271.61
2018-12-16T23:04:11.524Z,100268.41
2018-12-16T23:06:39.265Z,100263.27
2018-12-16T23:09:06.709Z,100269.28
2018-12-16T23:11:34.150Z,100265.80
2018-12-16T23:14:01.589Z,100267.23
2018-12-16T23:16:29.024Z,100267.00
2018-12-16T23:18:56.464Z,100265.17
2018-12-16T23:21:23.902Z,100267.33
2018-12-16T23:23:51.388Z,100259.64
2018-12-16T23:26:18.879Z,100258.40
2018-12-16T23:28:46.308Z,100247.55
2018-12-16T23:31:13.756Z,100245.62
2018-12-16T23:33:41.188Z,100249.88
2018-12-16T23:36:08.632Z,100255.09
2018-12-16T23:38:36.068Z,100253.52
2018-12-16T23:41:03.528Z,100257.54
2018-12-16T23:43:30.968Z,100261.66
2018-12-16T23:45:58.484Z,100260.53
2018-12-16T23:48:25.929Z,100260.08
2018-12-16T23:50:53.369Z,100263.69
2018-12-16T23:53:20.802Z,100255.32
2018-12-16T23:55:48.250Z,100254.94
2018-12-16T23:58:15.772Z,100263.58
